Impacts TAF Board
For situational awareness. Not to be used for flight planning purposes.
IDs:

KANB - Anniston Metro, AL, US

Issued at 0520 UTC 21 Oct 2018
Updated at 0859 UTC 21 Oct 2018
Potential Impact None Slight Moderate High
Time0853Z 21/09Z 21/10Z 21/11Z 21/12Z 21/13Z 21/14Z 21/15Z 21/16Z 21/17Z 21/18Z 21/19Z 21/20Z 21/21Z>>
Type OBS PRVL PRVL PRVL PRVL PRVL PRVL PRVL PRVL PRVL PRVL PRVL PRVL PRVL
VIS 10 >6 >6 >6 >6 >6 >6 >6 >6 >6 >6 >6 >6 >6
CIG -- -- -- -- -- -- -- -- -- -- -- -- -- --
Cover CLR SCT SCT SCT SCT SCT SCT SCT SCT SCT SCT SCT SCT SCT
FltCat VFR VFR VFR VFR VFR VFR VFR VFR VFR VFR VFR VFR VFR VFR
WX -- -- -- -- -- -- -- -- -- -- -- -- -- --
WDir 10 360 360 360 360 360 360 360 360 360 360 360 360 360
WSpd 6 10 10 10 10 10 10 10 10 10 10 10 10 10
WGst -- -- -- -- -- -- -- -- -- -- -- -- -- --
Raw TAF
KANB 210520Z 2106/2206 32005KT P6SM SCT250
  FM210900 36010KT P6SM SCT250


Raw METAR
KANB 210853Z AUTO 01006KT 10SM CLR 11/02 A3018 RMK AO2 SLP217 T01060022 53014
KANB 210753Z AUTO 35012G19KT 10SM CLR 12/04 A3016 RMK AO2 SLP213 T01220039
KANB 210653Z AUTO 02012G20KT 10SM CLR 13/06 A3014 RMK AO2 SLP206 T01330061
KANB 210553Z AUTO VRB03KT 10SM CLR 12/09 A3013 RMK AO2 SLP204 T01170089 10156 20111 402060111 58005

METAR Board
Radar Display
Forecast Discussion
For situational awareness. Not to be used for flight planning purposes.